Time;durP1;ratioP1;P1;durP2;ratioP2;P2;SDS_P1;SDS_P2;PMS_P1;PMS_P2;Temp;Humidity;BMP_temperature;BMP_pressure;BME280_temperature;BME280_humidity;BME280_pressure;Samples;Min_cycle;Max_cycle;Signal;HPM_P1;HPM_P2
2023/05/22 00:00:14;;;;;;;35.33;31.50;;;;;;;;;;4993824;28;20236;-87
2023/05/22 00:02:41;;;;;;;36.10;32.23;;;;;;;;;;4979625;28;20217;-89
2023/05/22 00:05:11;;;;;;;35.17;31.40;;;;;;;;;;4980268;28;20209;-89
2023/05/22 00:07:38;;;;;;;36.43;31.23;;;;;;;;;;4980258;28;20274;-88
2023/05/22 00:10:04;;;;;;;34.97;31.33;;;;;;;;;;4980037;28;20174;-88
2023/05/22 00:12:33;;;;;;;37.03;32.97;;;;;;;;;;4979098;28;20217;-88
2023/05/22 00:14:59;;;;;;;35.60;31.47;;;;;;;;;;4997136;28;20178;-88
2023/05/22 00:17:25;;;;;;;36.33;32.53;;;;;;;;;;4996594;28;20181;-88
2023/05/22 00:19:54;;;;;;;35.83;31.87;;;;;;;;;;4980190;28;20197;-88
2023/05/22 00:22:21;;;;;;;35.40;31.70;;;;;;;;;;4992540;28;20211;-89
2023/05/22 00:24:49;;;;;;;36.10;32.20;;;;;;;;;;4976830;28;20182;-89
2023/05/22 00:27:18;;;;;;;36.73;32.20;;;;;;;;;;4977048;28;20186;-89
2023/05/22 00:29:44;;;;;;;36.93;32.33;;;;;;;;;;4960509;28;20179;-88
2023/05/22 00:32:10;;;;;;;37.43;33.20;;;;;;;;;;4961415;28;20186;-88
2023/05/22 00:34:36;;;;;;;37.97;32.57;;;;;;;;;;4979870;28;20182;-88
2023/05/22 00:37:02;;;;;;;36.17;32.37;;;;;;;;;;4979696;28;20269;-89
2023/05/22 00:39:28;;;;;;;37.67;33.57;;;;;;;;;;4978656;28;20273;-89
2023/05/22 00:41:54;;;;;;;37.87;33.57;;;;;;;;;;4979367;28;20214;-89
2023/05/22 00:44:20;;;;;;;35.23;31.73;;;;;;;;;;4964867;28;20253;-88
2023/05/22 00:46:46;;;;;;;35.77;31.97;;;;;;;;;;4983073;28;20206;-89
2023/05/22 00:49:12;;;;;;;37.63;32.77;;;;;;;;;;4960261;28;20190;-88
2023/05/22 00:51:38;;;;;;;37.53;33.30;;;;;;;;;;4965943;28;20193;-88
2023/05/22 00:54:05;;;;;;;37.00;33.03;;;;;;;;;;4959972;28;20213;-89
2023/05/22 00:56:33;;;;;;;38.47;34.40;;;;;;;;;;4960401;28;20183;-89
2023/05/22 00:58:59;;;;;;;39.37;33.20;;;;;;;;;;4960073;28;20210;-89
2023/05/22 01:01:32;;;;;;;37.13;32.90;;;;;;;;;;4975333;28;20300;-89
2023/05/22 01:03:58;;;;;;;35.43;31.63;;;;;;;;;;4995378;28;20209;-88
2023/05/22 01:06:25;;;;;;;36.83;32.93;;;;;;;;;;4995430;28;20185;-89
2023/05/22 01:08:53;;;;;;;39.30;32.43;;;;;;;;;;4995860;28;20181;-89
2023/05/22 01:11:30;;;;;;;35.60;31.90;;;;;;;;;;4977174;28;20189;-89
2023/05/22 01:14:17;;;;;;;35.73;31.77;;;;;;;;;;4976082;28;20189;-88
2023/05/22 01:16:58;;;;;;;35.00;31.30;;;;;;;;;;4959554;28;20179;-88
2023/05/22 01:19:40;;;;;;;36.37;32.33;;;;;;;;;;4960206;28;20190;-88
2023/05/22 01:22:25;;;;;;;35.30;31.53;;;;;;;;;;4975707;28;20218;-89
2023/05/22 01:24:51;;;;;;;35.20;31.70;;;;;;;;;;4977612;28;20213;-88
2023/05/22 01:27:41;;;;;;;34.53;30.80;;;;;;;;;;4978996;28;20242;-87
2023/05/22 01:30:19;;;;;;;35.73;30.87;;;;;;;;;;4979112;28;20200;-88
2023/05/22 01:32:49;;;;;;;33.10;29.57;;;;;;;;;;4975162;28;20191;-88
2023/05/22 01:35:17;;;;;;;33.97;30.47;;;;;;;;;;4975696;28;20183;-89
2023/05/22 01:37:46;;;;;;;34.93;31.37;;;;;;;;;;4975783;28;20187;-88
2023/05/22 01:40:13;;;;;;;36.80;31.53;;;;;;;;;;4975490;28;20187;-88
2023/05/22 01:42:40;;;;;;;37.07;31.93;;;;;;;;;;4975049;28;20215;-89
2023/05/22 01:45:08;;;;;;;35.30;31.73;;;;;;;;;;4994265;28;20182;-88
2023/05/22 01:47:35;;;;;;;34.67;30.93;;;;;;;;;;4978256;28;20299;-88
2023/05/22 01:50:01;;;;;;;35.83;32.03;;;;;;;;;;4978126;28;20273;-89
2023/05/22 01:52:33;;;;;;;37.27;33.27;;;;;;;;;;4978272;28;20317;-88
2023/05/22 01:55:08;;;;;;;35.63;31.80;;;;;;;;;;4978342;28;20197;-88
2023/05/22 01:57:42;;;;;;;35.77;31.87;;;;;;;;;;4959203;28;20226;-89
2023/05/22 02:00:13;;;;;;;34.53;31.03;;;;;;;;;;4964313;28;20242;-88
2023/05/22 02:02:42;;;;;;;36.07;30.10;;;;;;;;;;4978265;28;20217;-88
2023/05/22 02:05:10;;;;;;;33.07;29.70;;;;;;;;;;4994449;28;20182;-88
2023/05/22 02:07:38;;;;;;;34.10;30.47;;;;;;;;;;4994391;28;20178;-88
2023/05/22 02:10:05;;;;;;;33.93;28.63;;;;;;;;;;4994323;28;20178;-88
2023/05/22 02:12:31;;;;;;;31.77;28.37;;;;;;;;;;4961919;28;20276;-88
2023/05/22 02:14:57;;;;;;;31.47;27.87;;;;;;;;;;4977546;28;20190;-88
2023/05/22 02:17:25;;;;;;;30.60;26.50;;;;;;;;;;4961992;28;20276;-88
2023/05/22 02:19:51;;;;;;;30.43;27.23;;;;;;;;;;4977777;28;20208;-88
2023/05/22 02:22:18;;;;;;;29.63;25.97;;;;;;;;;;4977148;28;20206;-88
2023/05/22 02:24:48;;;;;;;29.87;26.73;;;;;;;;;;4978181;28;20174;-88
2023/05/22 02:27:16;;;;;;;27.90;24.97;;;;;;;;;;4977984;28;20178;-89
2023/05/22 02:29:44;;;;;;;28.93;25.43;;;;;;;;;;4978082;28;20212;-89
2023/05/22 02:32:10;;;;;;;32.07;25.90;;;;;;;;;;4977809;28;20188;-88
2023/05/22 02:34:36;;;;;;;28.73;25.63;;;;;;;;;;4977718;28;20186;-89
2023/05/22 02:37:02;;;;;;;29.47;25.70;;;;;;;;;;4977526;28;20182;-88
2023/05/22 02:39:31;;;;;;;29.80;26.50;;;;;;;;;;4977510;28;20247;-89
2023/05/22 02:41:57;;;;;;;29.33;26.23;;;;;;;;;;4976736;28;20205;-88
2023/05/22 02:44:23;;;;;;;28.73;25.63;;;;;;;;;;4977575;28;20182;-88
2023/05/22 02:46:49;;;;;;;29.50;26.33;;;;;;;;;;4977574;28;20197;-88
2023/05/22 02:49:17;;;;;;;28.87;25.93;;;;;;;;;;4977741;28;20205;-89
2023/05/22 02:51:46;;;;;;;29.80;26.07;;;;;;;;;;4977361;28;20277;-89
2023/05/22 02:54:15;;;;;;;30.43;25.87;;;;;;;;;;4993737;28;20185;-88
2023/05/22 02:56:42;;;;;;;32.23;26.47;;;;;;;;;;4993516;28;20275;-88
2023/05/22 02:59:08;;;;;;;29.97;26.63;;;;;;;;;;4977742;28;20190;-88
2023/05/22 03:01:37;;;;;;;31.10;26.90;;;;;;;;;;4971961;28;20261;-88
2023/05/22 03:04:04;;;;;;;30.43;27.37;;;;;;;;;;4980228;28;20189;-88
2023/05/22 03:06:31;;;;;;;30.67;27.37;;;;;;;;;;4981437;28;20185;-88
2023/05/22 03:08:59;;;;;;;30.93;27.50;;;;;;;;;;4986724;28;20193;-88
2023/05/22 03:11:26;;;;;;;30.07;26.87;;;;;;;;;;5000718;28;20216;-88
2023/05/22 03:13:52;;;;;;;29.47;26.47;;;;;;;;;;4976852;28;20269;-88
2023/05/22 03:16:20;;;;;;;29.77;26.53;;;;;;;;;;4971675;28;20277;-87
2023/05/22 03:18:46;;;;;;;31.13;27.53;;;;;;;;;;4965596;28;20280;-88
2023/05/22 03:21:12;;;;;;;29.87;26.93;;;;;;;;;;4981326;28;20213;-88
2023/05/22 03:23:38;;;;;;;30.17;26.90;;;;;;;;;;4967804;28;20190;-89
2023/05/22 03:26:07;;;;;;;30.00;26.67;;;;;;;;;;4977313;28;20194;-88
2023/05/22 03:28:33;;;;;;;31.17;27.20;;;;;;;;;;4977279;28;20178;-88
2023/05/22 03:30:59;;;;;;;29.33;26.40;;;;;;;;;;4978041;28;20186;-88
2023/05/22 03:33:28;;;;;;;30.40;27.30;;;;;;;;;;4977748;28;20197;-88
2023/05/22 03:35:55;;;;;;;30.30;26.93;;;;;;;;;;4977863;28;20183;-88
2023/05/22 03:38:21;;;;;;;30.20;27.00;;;;;;;;;;4977783;28;20322;-87
2023/05/22 03:40:47;;;;;;;31.57;28.30;;;;;;;;;;4980506;28;20263;-88
2023/05/22 03:43:15;;;;;;;30.97;27.60;;;;;;;;;;4972454;28;20187;-88
2023/05/22 03:45:42;;;;;;;31.07;27.80;;;;;;;;;;4945469;28;20217;-89
2023/05/22 03:48:09;;;;;;;31.07;27.77;;;;;;;;;;4977406;28;20221;-88
2023/05/22 03:50:38;;;;;;;31.87;28.53;;;;;;;;;;4977491;28;20195;-87
2023/05/22 03:53:04;;;;;;;31.43;28.20;;;;;;;;;;4977177;28;20170;-88
2023/05/22 03:55:30;;;;;;;31.50;26.73;;;;;;;;;;4977133;28;20182;-88
2023/05/22 03:57:56;;;;;;;30.83;27.53;;;;;;;;;;4980137;28;20182;-88
2023/05/22 04:00:22;;;;;;;30.70;27.40;;;;;;;;;;5002930;28;20225;-88
2023/05/22 04:02:49;;;;;;;29.63;26.63;;;;;;;;;;4997202;28;20229;-87
2023/05/22 04:05:16;;;;;;;30.87;27.47;;;;;;;;;;4979394;28;20181;-87
2023/05/22 04:07:44;;;;;;;31.07;27.77;;;;;;;;;;4962273;28;20187;-87
2023/05/22 04:10:10;;;;;;;29.47;26.47;;;;;;;;;;4976480;28;20211;-88
2023/05/22 04:12:36;;;;;;;31.20;27.27;;;;;;;;;;4960687;28;20182;-88
2023/05/22 04:15:02;;;;;;;30.27;27.13;;;;;;;;;;4968640;28;20186;-88
2023/05/22 04:17:32;;;;;;;32.67;29.13;;;;;;;;;;4979440;28;20174;-88
2023/05/22 04:19:59;;;;;;;32.60;27.27;;;;;;;;;;4979427;28;20180;-88
2023/05/22 04:22:29;;;;;;;30.30;27.30;;;;;;;;;;4979427;28;20248;-88
2023/05/22 04:24:55;;;;;;;31.17;27.57;;;;;;;;;;4980180;28;20181;-89
2023/05/22 04:27:21;;;;;;;30.90;27.03;;;;;;;;;;4993902;28;20268;-92
2023/05/22 04:29:50;;;;;;;31.77;26.87;;;;;;;;;;4979786;28;20237;-93
2023/05/22 04:32:26;;;;;;;30.33;27.13;;;;;;;;;;4974678;28;20174;-92
2023/05/22 04:34:52;;;;;;;29.77;26.77;;;;;;;;;;4960639;28;20178;-92
2023/05/22 04:37:19;;;;;;;22.73;20.52;;;;;;;;;;4965590;28;20448;-93
2023/05/22 04:39:51;;;;;;;28.07;25.27;;;;;;;;;;4979861;28;20204;-93
2023/05/22 04:42:18;;;;;;;29.63;26.63;;;;;;;;;;4979829;28;20216;-93
2023/05/22 04:44:47;;;;;;;28.47;25.57;;;;;;;;;;4976998;28;20186;-93
2023/05/22 04:47:13;;;;;;;29.27;26.30;;;;;;;;;;4977464;28;20205;-92
2023/05/22 04:49:45;;;;;;;29.10;26.17;;;;;;;;;;4979650;28;20224;-92
2023/05/22 04:52:11;;;;;;;29.07;26.07;;;;;;;;;;4980668;28;20204;-91
2023/05/22 04:54:37;;;;;;;28.17;25.23;;;;;;;;;;4979588;28;20178;-93
2023/05/22 04:57:07;;;;;;;28.90;26.00;;;;;;;;;;4979543;28;20186;-94
2023/05/22 04:59:36;;;;;;;29.47;26.57;;;;;;;;;;4976728;28;20175;-92
2023/05/22 05:02:06;;;;;;;27.83;24.93;;;;;;;;;;4971415;28;20229;-92
2023/05/22 05:04:32;;;;;;;28.73;25.87;;;;;;;;;;4979711;28;20197;-91
2023/05/22 05:06:59;;;;;;;28.47;25.67;;;;;;;;;;4985792;28;20225;-93
2023/05/22 05:09:27;;;;;;;28.10;25.30;;;;;;;;;;4984122;28;20217;-92
2023/05/22 05:11:54;;;;;;;27.37;24.77;;;;;;;;;;4979773;28;20205;-91
2023/05/22 05:14:20;;;;;;;28.93;25.97;;;;;;;;;;4979896;28;20188;-91
2023/05/22 05:16:53;;;;;;;28.80;25.90;;;;;;;;;;4979175;28;20206;-92
2023/05/22 05:19:25;;;;;;;28.17;25.37;;;;;;;;;;4979066;28;20186;-93
2023/05/22 05:21:51;;;;;;;28.23;25.43;;;;;;;;;;4978832;28;20241;-93
2023/05/22 05:24:17;;;;;;;28.97;26.10;;;;;;;;;;4979225;28;20182;-93
2023/05/22 05:26:43;;;;;;;29.67;26.83;;;;;;;;;;4978194;28;20237;-94
2023/05/22 05:29:11;;;;;;;28.43;25.53;;;;;;;;;;4979370;28;20186;-93
2023/05/22 05:31:38;;;;;;;28.30;25.40;;;;;;;;;;4978730;28;20186;-93
2023/05/22 05:34:04;;;;;;;27.83;25.13;;;;;;;;;;4979187;28;20182;-94
2023/05/22 05:36:33;;;;;;;24.83;22.63;;;;;;;;;;4978886;28;20186;-93
2023/05/22 05:38:59;;;;;;;24.80;22.60;;;;;;;;;;4978906;28;20186;-93
2023/05/22 05:41:26;;;;;;;24.60;22.40;;;;;;;;;;4979423;28;20253;-93
2023/05/22 05:43:59;;;;;;;24.03;21.93;;;;;;;;;;4979036;28;20180;-93
2023/05/22 05:46:26;;;;;;;23.97;21.97;;;;;;;;;;4978959;28;20204;-93
2023/05/22 05:48:54;;;;;;;23.83;21.73;;;;;;;;;;4978829;28;20178;-94
2023/05/22 05:51:21;;;;;;;23.20;21.20;;;;;;;;;;4978549;28;20253;-94
2023/05/22 05:53:47;;;;;;;24.97;22.87;;;;;;;;;;4978588;28;20252;-94
2023/05/22 05:56:15;;;;;;;23.47;21.37;;;;;;;;;;4978942;28;20186;-94
2023/05/22 05:58:42;;;;;;;23.90;21.73;;;;;;;;;;4978785;28;20189;-94
2023/05/22 06:01:10;;;;;;;22.93;20.93;;;;;;;;;;4979136;28;20215;-94
2023/05/22 06:03:38;;;;;;;24.40;22.20;;;;;;;;;;4997748;28;20251;-94
2023/05/22 06:06:06;;;;;;;24.80;22.63;;;;;;;;;;4988712;28;20197;-94
2023/05/22 06:08:33;;;;;;;26.10;23.80;;;;;;;;;;4994453;28;20174;-94
2023/05/22 06:11:02;;;;;;;26.47;24.27;;;;;;;;;;4994504;28;20182;-94
2023/05/22 06:13:28;;;;;;;25.87;23.57;;;;;;;;;;4994249;28;20189;-94
2023/05/22 06:15:54;;;;;;;26.67;24.27;;;;;;;;;;4994321;28;20186;-94
2023/05/22 06:18:24;;;;;;;25.57;23.37;;;;;;;;;;4994348;28;20273;-93
2023/05/22 06:20:50;;;;;;;26.40;24.10;;;;;;;;;;4994366;28;20182;-94
2023/05/22 06:23:16;;;;;;;26.53;24.23;;;;;;;;;;4994143;28;20178;-94
2023/05/22 06:25:45;;;;;;;27.50;25.07;;;;;;;;;;4993944;28;20200;-94
2023/05/22 06:28:11;;;;;;;27.80;25.30;;;;;;;;;;4994451;28;20197;-95
2023/05/22 06:30:37;;;;;;;27.13;24.73;;;;;;;;;;4994148;28;20270;-94
2023/05/22 06:33:06;;;;;;;21.27;19.23;;;;;;;;;;4994081;28;20170;-94
2023/05/22 06:35:32;;;;;;;27.50;24.90;;;;;;;;;;4994116;28;20208;-92
2023/05/22 06:38:01;;;;;;;27.63;25.20;;;;;;;;;;4996729;28;20196;-91
2023/05/22 06:40:30;;;;;;;28.90;26.10;;;;;;;;;;5012825;28;20180;-91
2023/05/22 06:42:58;;;;;;;27.70;25.10;;;;;;;;;;4989768;28;20206;-91
2023/05/22 06:45:27;;;;;;;28.93;26.13;;;;;;;;;;4993226;28;20260;-91
2023/05/22 06:47:53;;;;;;;29.73;27.03;;;;;;;;;;4982278;28;20228;-91
2023/05/22 06:50:20;;;;;;;29.67;27.07;;;;;;;;;;4993062;28;20249;-93
2023/05/22 06:52:49;;;;;;;30.50;27.80;;;;;;;;;;4977531;28;20181;-93
2023/05/22 06:55:15;;;;;;;30.70;27.90;;;;;;;;;;4977800;28;20205;-94
2023/05/22 06:57:41;;;;;;;30.53;27.63;;;;;;;;;;4978173;28;20182;-93
2023/05/22 07:00:08;;;;;;;28.77;26.13;;;;;;;;;;4988659;28;20272;-94
2023/05/22 07:02:34;;;;;;;30.00;27.10;;;;;;;;;;4993538;28;20229;-94
2023/05/22 07:05:00;;;;;;;29.87;27.23;;;;;;;;;;4993435;28;20216;-93
2023/05/22 07:07:26;;;;;;;30.77;27.70;;;;;;;;;;4996586;28;20180;-94
2023/05/22 07:10:00;;;;;;;30.30;27.47;;;;;;;;;;4997247;28;20264;-93
2023/05/22 07:12:27;;;;;;;30.00;27.13;;;;;;;;;;4996896;28;20177;-94
2023/05/22 07:15:13;;;;;;;;;;;;;;;;;;;;;
2023/05/22 07:17:43;;;;;;;31.90;29.23;;;;;;;;;;4995399;28;20423;-93
2023/05/22 07:23:23;;;;;;;30.88;28.27;;;;;;;;;;5013191;28;20418;-89
2023/05/22 07:25:52;;;;;;;31.77;28.97;;;;;;;;;;4996082;28;20408;-87
2023/05/22 07:28:18;;;;;;;31.08;28.33;;;;;;;;;;4978293;28;20411;-89
2023/05/22 07:30:44;;;;;;;31.33;28.65;;;;;;;;;;5003372;28;20423;-89
2023/05/22 07:33:11;;;;;;;30.90;28.30;;;;;;;;;;5011270;28;20440;-88
2023/05/22 07:35:40;;;;;;;28.83;26.23;;;;;;;;;;4991622;28;20189;-88
2023/05/22 07:38:06;;;;;;;29.38;26.73;;;;;;;;;;4975845;28;20459;-88
2023/05/22 07:40:32;;;;;;;26.17;23.77;;;;;;;;;;4988666;28;20181;-88
2023/05/22 07:43:00;;;;;;;28.53;25.90;;;;;;;;;;4996505;28;20205;-90
2023/05/22 07:45:26;;;;;;;28.03;25.47;;;;;;;;;;4979969;28;20201;-90
2023/05/22 07:47:53;;;;;;;27.20;24.73;;;;;;;;;;4996118;28;20235;-90
2023/05/22 07:50:19;;;;;;;26.90;24.30;;;;;;;;;;4989118;28;20197;-88
2023/05/22 07:52:45;;;;;;;26.20;23.80;;;;;;;;;;5007152;28;20235;-88
2023/05/22 07:55:11;;;;;;;24.20;22.07;;;;;;;;;;5000486;28;20186;-89
2023/05/22 07:57:37;;;;;;;25.07;22.87;;;;;;;;;;5011409;28;20178;-88
2023/05/22 08:00:11;;;;;;;25.27;22.97;;;;;;;;;;5007479;28;20187;-89
2023/05/22 08:02:38;;;;;;;25.40;23.20;;;;;;;;;;5005883;28;20450;-88
2023/05/22 08:05:06;;;;;;;24.10;21.90;;;;;;;;;;5015875;28;20285;-89
2023/05/22 08:07:32;;;;;;;23.57;21.23;;;;;;;;;;4987512;28;20161;-88
2023/05/22 08:09:58;;;;;;;24.23;22.03;;;;;;;;;;5011714;28;20178;-87
2023/05/22 08:12:24;;;;;;;22.87;20.77;;;;;;;;;;5010138;28;20260;-87
2023/05/22 08:14:53;;;;;;;21.77;19.73;;;;;;;;;;5004312;28;20195;-88
2023/05/22 08:17:19;;;;;;;23.92;21.83;;;;;;;;;;5015008;28;20417;-88
2023/05/22 08:19:45;;;;;;;23.48;21.48;;;;;;;;;;5004036;28;20437;-88
2023/05/22 08:22:14;;;;;;;21.03;19.13;;;;;;;;;;5009474;28;20259;-89
2023/05/22 08:24:42;;;;;;;21.85;19.95;;;;;;;;;;5011824;28;20410;-88
2023/05/22 08:27:08;;;;;;;23.07;21.10;;;;;;;;;;5001802;28;20494;-88
2023/05/22 08:29:37;;;;;;;21.17;19.27;;;;;;;;;;5018677;28;20416;-89
2023/05/22 08:32:03;;;;;;;22.20;20.10;;;;;;;;;;5018227;28;20263;-89
2023/05/22 08:34:29;;;;;;;20.48;18.67;;;;;;;;;;5018816;28;20268;-90
2023/05/22 08:36:58;;;;;;;21.30;19.40;;;;;;;;;;5018729;28;20184;-89
2023/05/22 08:39:27;;;;;;;20.15;18.33;;;;;;;;;;5018963;28;20181;-89
2023/05/22 08:41:53;;;;;;;19.33;17.50;;;;;;;;;;5018503;28;20208;-89
2023/05/22 08:44:23;;;;;;;19.67;17.88;;;;;;;;;;5018429;28;20177;-89
2023/05/22 08:46:51;;;;;;;19.70;17.90;;;;;;;;;;5003213;28;20423;-89
2023/05/22 08:49:21;;;;;;;19.77;17.88;;;;;;;;;;4998036;28;20410;-89
2023/05/22 08:51:48;;;;;;;17.73;16.08;;;;;;;;;;4999029;28;20250;-89
2023/05/22 08:54:18;;;;;;;17.60;16.10;;;;;;;;;;4998163;28;20415;-89
2023/05/22 08:56:44;;;;;;;16.00;14.60;;;;;;;;;;4997711;28;20426;-89
2023/05/22 08:59:11;;;;;;;15.45;14.05;;;;;;;;;;4998109;28;20410;-91
2023/05/22 09:01:39;;;;;;;14.50;13.30;;;;;;;;;;4996370;28;20530;-90
2023/05/22 09:04:06;;;;;;;14.48;13.23;;;;;;;;;;4998369;28;20414;-91
2023/05/22 09:06:38;;;;;;;13.70;12.43;;;;;;;;;;4997377;28;20261;-92
2023/05/22 09:09:04;;;;;;;13.75;12.57;;;;;;;;;;4998141;28;20480;-90
2023/05/22 09:11:30;;;;;;;12.60;11.40;;;;;;;;;;4999002;28;20236;-91
2023/05/22 09:14:07;;;;;;;11.80;10.70;;;;;;;;;;4998877;28;20178;-91
2023/05/22 09:16:36;;;;;;;12.40;11.20;;;;;;;;;;4998591;28;20446;-91
2023/05/22 09:19:03;;;;;;;13.20;12.00;;;;;;;;;;4997906;28;20509;-92
2023/05/22 09:21:40;;;;;;;13.23;12.13;;;;;;;;;;4999926;28;20282;-90
2023/05/22 09:24:15;;;;;;;12.60;11.50;;;;;;;;;;4998316;28;20246;-91
2023/05/22 09:26:41;;;;;;;12.80;11.70;;;;;;;;;;4998725;28;20173;-91
2023/05/22 09:29:07;;;;;;;12.80;11.60;;;;;;;;;;4997788;28;20407;-90
2023/05/22 09:31:56;;;;;;;13.07;11.27;;;;;;;;;;4998588;28;20177;-90
2023/05/22 09:34:27;;;;;;;12.93;11.73;;;;;;;;;;4995045;28;20414;-91
2023/05/22 09:37:02;;;;;;;13.00;11.70;;;;;;;;;;4997397;28;20420;-92
2023/05/22 09:39:38;;;;;;;12.88;11.57;;;;;;;;;;4998901;28;20177;-91
2023/05/22 09:42:08;;;;;;;13.13;11.93;;;;;;;;;;4998667;28;20212;-90
2023/05/22 09:44:34;;;;;;;12.90;11.32;;;;;;;;;;4998011;28;20178;-91
2023/05/22 09:47:01;;;;;;;13.05;11.85;;;;;;;;;;4998183;28;20243;-92
2023/05/22 09:49:27;;;;;;;11.50;10.50;;;;;;;;;;4997403;28;20186;-94
2023/05/22 09:51:54;;;;;;;11.00;9.77;;;;;;;;;;4972037;28;20189;-90
2023/05/22 09:54:22;;;;;;;10.95;9.98;;;;;;;;;;4997473;28;20186;-91
2023/05/22 09:56:54;;;;;;;10.70;9.82;;;;;;;;;;4994854;28;20194;-91
2023/05/22 09:59:22;;;;;;;11.32;10.43;;;;;;;;;;4997624;28;20173;-91
2023/05/22 10:01:49;;;;;;;12.27;11.18;;;;;;;;;;4972687;28;20227;-91
2023/05/22 10:04:17;;;;;;;11.77;10.35;;;;;;;;;;4975032;28;20189;-91
2023/05/22 10:06:49;;;;;;;11.50;10.50;;;;;;;;;;4978129;28;20427;-92
2023/05/22 10:09:16;;;;;;;13.07;11.88;;;;;;;;;;4977940;28;20507;-90
2023/05/22 10:11:45;;;;;;;13.17;11.47;;;;;;;;;;4978179;28;20393;-91
2023/05/22 10:14:12;;;;;;;15.48;12.68;;;;;;;;;;4978429;28;20182;-90
2023/05/22 10:16:44;;;;;;;15.02;13.68;;;;;;;;;;4977892;28;20412;-90
2023/05/22 10:19:11;;;;;;;14.20;12.90;;;;;;;;;;4973981;28;20425;-91
2023/05/22 10:21:38;;;;;;;13.43;12.17;;;;;;;;;;4958040;28;20445;-91
2023/05/22 10:24:07;;;;;;;13.20;12.07;;;;;;;;;;4968492;28;20497;-92
2023/05/22 10:26:33;;;;;;;12.68;11.48;;;;;;;;;;4958250;28;20418;-91
2023/05/22 10:29:05;;;;;;;11.90;10.73;;;;;;;;;;4958917;28;20178;-90
2023/05/22 10:31:46;;;;;;;12.73;11.60;;;;;;;;;;4958945;28;20269;-90
2023/05/22 10:34:15;;;;;;;12.27;11.27;;;;;;;;;;4958418;28;20249;-90
2023/05/22 10:36:44;;;;;;;13.00;11.73;;;;;;;;;;4958492;28;20183;-91
2023/05/22 10:39:32;;;;;;;12.48;11.38;;;;;;;;;;4958388;28;20269;-94
2023/05/22 10:42:01;;;;;;;13.13;11.90;;;;;;;;;;4958238;28;20430;-93
2023/05/22 10:44:27;;;;;;;12.95;11.80;;;;;;;;;;4967269;28;20426;-93
2023/05/22 10:46:56;;;;;;;12.82;11.73;;;;;;;;;;4957716;28;20413;-93
2023/05/22 10:49:25;;;;;;;12.80;11.65;;;;;;;;;;4959073;28;20290;-93
2023/05/22 10:52:14;;;;;;;12.45;11.35;;;;;;;;;;4958612;28;20206;-93
2023/05/22 10:54:54;;;;;;;11.95;10.88;;;;;;;;;;4956904;28;20210;-93
2023/05/22 10:57:23;;;;;;;13.13;11.70;;;;;;;;;;4958370;28;20187;-93
2023/05/22 11:00:06;;;;;;;12.43;11.23;;;;;;;;;;4958188;28;20174;-94
2023/05/22 11:02:36;;;;;;;12.35;11.20;;;;;;;;;;4969408;28;20230;-94
2023/05/22 11:05:20;;;;;;;12.43;11.25;;;;;;;;;;4977487;28;20181;-93
2023/05/22 11:07:46;;;;;;;12.55;11.43;;;;;;;;;;4977586;28;20181;-93
2023/05/22 11:10:12;;;;;;;11.48;10.40;;;;;;;;;;4978514;28;20221;-94
2023/05/22 11:12:41;;;;;;;11.70;10.73;;;;;;;;;;4977313;28;20181;-93
2023/05/22 11:15:08;;;;;;;12.80;11.57;;;;;;;;;;4977547;28;20178;-93
2023/05/22 11:17:41;;;;;;;11.70;10.70;;;;;;;;;;4977481;28;20186;-94
2023/05/22 11:20:28;;;;;;;12.15;10.95;;;;;;;;;;4977932;28;20267;-93
2023/05/22 11:23:04;;;;;;;12.32;11.23;;;;;;;;;;4977774;28;20236;-94
2023/05/22 11:25:32;;;;;;;12.73;11.60;;;;;;;;;;4980924;28;20217;-94
2023/05/22 11:28:01;;;;;;;12.50;11.40;;;;;;;;;;4981853;28;20170;-93
2023/05/22 11:30:29;;;;;;;12.90;11.80;;;;;;;;;;4980655;28;20420;-93
2023/05/22 11:33:05;;;;;;;13.15;11.95;;;;;;;;;;4981859;28;20237;-93
2023/05/22 11:35:31;;;;;;;12.43;11.27;;;;;;;;;;4981027;28;20256;-94
2023/05/22 11:38:03;;;;;;;13.05;11.95;;;;;;;;;;4982073;28;20178;-93
2023/05/22 11:40:29;;;;;;;12.38;11.27;;;;;;;;;;4981567;28;20185;-93
2023/05/22 11:42:58;;;;;;;13.20;11.90;;;;;;;;;;4981390;28;20309;-94
2023/05/22 11:45:24;;;;;;;12.00;11.00;;;;;;;;;;4980771;28;20257;-93
2023/05/22 11:47:50;;;;;;;13.13;11.95;;;;;;;;;;4980838;28;20205;-94
2023/05/22 11:50:19;;;;;;;12.23;11.02;;;;;;;;;;4980757;28;20181;-93
2023/05/22 11:56:44;;;;;;;12.48;11.38;;;;;;;;;;4961276;28;20463;-94
2023/05/22 11:59:07;;;;;;;13.13;11.80;;;;;;;;;;4960454;28;20186;-93
2023/05/22 12:01:59;;;;;;;12.55;11.32;;;;;;;;;;4977764;28;20305;-92
2023/05/22 12:04:42;;;;;;;12.38;11.27;;;;;;;;;;4956071;28;20468;-94
2023/05/22 12:07:37;;;;;;;13.60;12.40;;;;;;;;;;4983193;28;20467;-93
2023/05/22 12:10:06;;;;;;;14.15;12.80;;;;;;;;;;4980092;28;20421;-94
2023/05/22 12:13:01;;;;;;;13.70;12.40;;;;;;;;;;4979443;28;20420;-94
2023/05/22 12:15:38;;;;;;;13.27;12.07;;;;;;;;;;4996217;28;20404;-94
2023/05/22 12:18:08;;;;;;;13.68;12.43;;;;;;;;;;4979190;28;20504;-94
2023/05/22 12:20:42;;;;;;;14.35;13.07;;;;;;;;;;4979848;28;20415;-93
2023/05/22 12:23:35;;;;;;;13.95;12.85;;;;;;;;;;4979550;28;20515;-92
2023/05/22 12:26:08;;;;;;;14.37;13.10;;;;;;;;;;4979242;28;20419;-92
2023/05/22 12:28:45;;;;;;;;;;;;;;;;;;;;;
2023/05/22 12:31:35;;;;;;;13.73;12.60;;;;;;;;;;4997184;28;20412;-92
2023/05/22 12:34:04;;;;;;;13.70;12.37;;;;;;;;;;4981765;28;20496;-92
2023/05/22 12:36:37;;;;;;;12.88;11.73;;;;;;;;;;4979687;28;20182;-92
2023/05/22 12:39:26;;;;;;;13.07;11.98;;;;;;;;;;4979116;28;20437;-93
2023/05/22 12:41:55;;;;;;;13.35;12.25;;;;;;;;;;4978908;28;20433;-92
2023/05/22 12:44:24;;;;;;;13.05;11.73;;;;;;;;;;4979588;28;20205;-92
2023/05/22 12:46:53;;;;;;;13.23;12.03;;;;;;;;;;4996296;28;20397;-94
2023/05/22 12:49:22;;;;;;;12.90;11.70;;;;;;;;;;4979629;28;20178;-93
2023/05/22 12:51:56;;;;;;;12.98;11.68;;;;;;;;;;4987271;28;20209;-91
2023/05/22 12:54:22;;;;;;;13.65;12.50;;;;;;;;;;4995169;28;20424;-94
2023/05/22 12:56:56;;;;;;;13.52;12.23;;;;;;;;;;4994887;28;20401;-92
2023/05/22 12:59:24;;;;;;;13.52;12.43;;;;;;;;;;4995107;28;20404;-93
2023/05/22 13:01:51;;;;;;;12.63;11.40;;;;;;;;;;4994399;28;20312;-92
2023/05/22 13:04:19;;;;;;;12.85;11.73;;;;;;;;;;4979137;28;20177;-94
2023/05/22 13:06:48;;;;;;;12.85;11.68;;;;;;;;;;4979619;28;20170;-92
2023/05/22 13:09:15;;;;;;;13.57;12.18;;;;;;;;;;4975662;28;20175;-93
2023/05/22 13:11:50;;;;;;;14.05;12.77;;;;;;;;;;4978837;28;20182;-93
2023/05/22 13:14:16;;;;;;;13.30;12.20;;;;;;;;;;4994834;28;20413;-92
2023/05/22 13:17:03;;;;;;;12.80;11.60;;;;;;;;;;4995433;28;20178;-92
2023/05/22 13:26:09;;;;;;;13.73;12.45;;;;;;;;;;4917193;29;20421;-92
2023/05/22 13:28:41;;;;;;;13.60;12.38;;;;;;;;;;4958226;28;20430;-93
2023/05/22 13:31:07;;;;;;;15.55;14.13;;;;;;;;;;4974459;28;20457;-94
2023/05/22 13:33:33;;;;;;;15.77;14.38;;;;;;;;;;4959150;28;20409;-93
2023/05/22 13:36:05;;;;;;;15.18;13.88;;;;;;;;;;4959444;28;20398;-92
2023/05/22 13:38:33;;;;;;;14.90;13.57;;;;;;;;;;4959187;28;20414;-93
2023/05/22 13:41:02;;;;;;;14.35;13.05;;;;;;;;;;4959018;28;20421;-93
2023/05/22 13:43:28;;;;;;;14.90;13.52;;;;;;;;;;4958685;28;20418;-92
2023/05/22 13:46:00;;;;;;;16.15;14.65;;;;;;;;;;4958314;28;20464;-91
2023/05/22 13:48:35;;;;;;;14.80;13.40;;;;;;;;;;4958122;28;20406;-93
2023/05/22 13:51:01;;;;;;;15.02;13.68;;;;;;;;;;4958371;28;20486;-93
2023/05/22 13:53:27;;;;;;;14.65;13.43;;;;;;;;;;4942627;28;20418;-91
2023/05/22 13:55:56;;;;;;;15.25;13.75;;;;;;;;;;4958339;28;20411;-92
2023/05/22 14:01:26;;;;;;;15.60;14.20;;;;;;;;;;4962588;28;20485;-93
2023/05/22 14:03:56;;;;;;;13.18;11.80;;;;;;;;;;4957473;28;20418;-91
2023/05/22 14:06:29;;;;;;;12.23;11.10;;;;;;;;;;4956879;28;20434;-93
2023/05/22 14:09:04;;;;;;;11.93;10.68;;;;;;;;;;4957818;28;20171;-94
2023/05/22 14:12:09;;;;;;;12.15;11.00;;;;;;;;;;4957509;28;20504;-94
2023/05/22 14:14:35;;;;;;;11.75;10.73;;;;;;;;;;4958109;28;20182;-93
2023/05/22 14:17:09;;;;;;;13.40;10.45;;;;;;;;;;4957932;28;20189;-92
2023/05/22 14:19:46;;;;;;;12.70;10.20;;;;;;;;;;4957944;28;20195;-92
2023/05/22 14:22:25;;;;;;;10.82;9.55;;;;;;;;;;4957843;28;20210;-93
2023/05/22 14:28:17;;;;;;;26.13;13.52;;;;;;;;;;4964404;28;20182;-92
2023/05/22 14:30:49;;;;;;;21.35;15.30;;;;;;;;;;4957015;28;20410;-92
2023/05/22 14:33:18;;;;;;;19.50;14.05;;;;;;;;;;4957730;28;20178;-92
2023/05/22 14:35:47;;;;;;;25.45;15.32;;;;;;;;;;4958116;28;20257;-91
2023/05/22 14:38:13;;;;;;;19.77;14.80;;;;;;;;;;4958139;28;20174;-91
2023/05/22 14:46:52;;;;;;;15.73;12.55;;;;;;;;;;4975105;28;20262;-90
2023/05/22 14:49:21;;;;;;;13.50;12.20;;;;;;;;;;4958192;28;20174;-91
2023/05/22 14:51:53;;;;;;;15.00;12.48;;;;;;;;;;4957431;28;20183;-92
2023/05/22 14:54:22;;;;;;;15.05;12.95;;;;;;;;;;4957519;28;20245;-90
2023/05/22 14:56:56;;;;;;;16.42;13.25;;;;;;;;;;4957440;28;20174;-91